sensor_id;sensor_type;location;lat;lon;timestamp;P1;durP1;ratioP1;P2;durP2;ratioP2
36445;SDS011;22472;50.848;-1.216;2022-09-09T00:00:17;4.20;;;0.60;;
36445;SDS011;22472;50.848;-1.216;2022-09-09T00:02:48;5.35;;;0.90;;
36445;SDS011;22472;50.848;-1.216;2022-09-09T00:05:23;6.28;;;0.93;;
36445;SDS011;22472;50.848;-1.216;2022-09-09T00:07:59;5.78;;;0.70;;
36445;SDS011;22472;50.848;-1.216;2022-09-09T00:10:30;5.25;;;0.93;;
36445;SDS011;22472;50.848;-1.216;2022-09-09T00:13:01;6.50;;;0.70;;
36445;SDS011;22472;50.848;-1.216;2022-09-09T00:15:36;6.25;;;0.85;;
36445;SDS011;22472;50.848;-1.216;2022-09-09T00:18:08;5.78;;;0.70;;
36445;SDS011;22472;50.848;-1.216;2022-09-09T00:20:43;6.47;;;0.85;;
36445;SDS011;22472;50.848;-1.216;2022-09-09T00:23:20;6.38;;;1.00;;
36445;SDS011;22472;50.848;-1.216;2022-09-09T00:25:54;7.15;;;0.88;;
36445;SDS011;22472;50.848;-1.216;2022-09-09T00:28:29;6.07;;;1.00;;
36445;SDS011;22472;50.848;-1.216;2022-09-09T00:30:59;6.13;;;0.90;;
36445;SDS011;22472;50.848;-1.216;2022-09-09T00:33:37;8.52;;;1.13;;
36445;SDS011;22472;50.848;-1.216;2022-09-09T00:36:07;4.80;;;1.02;;
36445;SDS011;22472;50.848;-1.216;2022-09-09T00:38:43;5.07;;;0.90;;
36445;SDS011;22472;50.848;-1.216;2022-09-09T00:41:15;6.72;;;1.00;;
36445;SDS011;22472;50.848;-1.216;2022-09-09T00:43:56;5.25;;;0.63;;
36445;SDS011;22472;50.848;-1.216;2022-09-09T00:46:32;6.45;;;0.98;;
36445;SDS011;22472;50.848;-1.216;2022-09-09T00:49:15;5.90;;;1.00;;
36445;SDS011;22472;50.848;-1.216;2022-09-09T00:51:54;6.40;;;0.95;;
36445;SDS011;22472;50.848;-1.216;2022-09-09T00:54:40;4.20;;;0.93;;
36445;SDS011;22472;50.848;-1.216;2022-09-09T00:57:21;4.72;;;1.10;;
36445;SDS011;22472;50.848;-1.216;2022-09-09T00:59:52;5.93;;;0.85;;
36445;SDS011;22472;50.848;-1.216;2022-09-09T01:02:30;7.10;;;0.98;;
36445;SDS011;22472;50.848;-1.216;2022-09-09T01:05:07;5.90;;;1.02;;
36445;SDS011;22472;50.848;-1.216;2022-09-09T01:07:39;5.40;;;1.00;;
36445;SDS011;22472;50.848;-1.216;2022-09-09T01:10:15;5.78;;;1.20;;
36445;SDS011;22472;50.848;-1.216;2022-09-09T01:12:50;8.40;;;1.40;;
36445;SDS011;22472;50.848;-1.216;2022-09-09T01:15:21;7.68;;;1.42;;
36445;SDS011;22472;50.848;-1.216;2022-09-09T01:17:55;10.30;;;1.67;;
36445;SDS011;22472;50.848;-1.216;2022-09-09T01:20:29;5.22;;;1.40;;
36445;SDS011;22472;50.848;-1.216;2022-09-09T01:23:16;7.43;;;1.20;;
36445;SDS011;22472;50.848;-1.216;2022-09-09T01:28:42;8.32;;;1.63;;
36445;SDS011;22472;50.848;-1.216;2022-09-09T01:31:11;8.30;;;1.55;;
36445;SDS011;22472;50.848;-1.216;2022-09-09T01:33:43;6.10;;;1.27;;
36445;SDS011;22472;50.848;-1.216;2022-09-09T01:36:11;6.03;;;1.30;;
36445;SDS011;22472;50.848;-1.216;2022-09-09T01:38:43;7.15;;;1.58;;
36445;SDS011;22472;50.848;-1.216;2022-09-09T01:41:10;9.70;;;1.60;;
36445;SDS011;22472;50.848;-1.216;2022-09-09T01:43:37;7.95;;;1.67;;
36445;SDS011;22472;50.848;-1.216;2022-09-09T01:46:05;6.20;;;1.42;;
36445;SDS011;22472;50.848;-1.216;2022-09-09T01:48:32;6.75;;;1.63;;
36445;SDS011;22472;50.848;-1.216;2022-09-09T01:50:59;6.40;;;1.90;;
36445;SDS011;22472;50.848;-1.216;2022-09-09T01:53:26;8.40;;;1.70;;
36445;SDS011;22472;50.848;-1.216;2022-09-09T01:56:00;7.07;;;1.80;;
36445;SDS011;22472;50.848;-1.216;2022-09-09T01:58:34;6.40;;;1.75;;
36445;SDS011;22472;50.848;-1.216;2022-09-09T02:01:15;5.35;;;1.60;;
36445;SDS011;22472;50.848;-1.216;2022-09-09T02:03:51;6.45;;;1.65;;
36445;SDS011;22472;50.848;-1.216;2022-09-09T02:06:27;6.55;;;1.60;;
36445;SDS011;22472;50.848;-1.216;2022-09-09T02:08:57;5.88;;;1.80;;
36445;SDS011;22472;50.848;-1.216;2022-09-09T02:11:27;5.85;;;1.70;;
36445;SDS011;22472;50.848;-1.216;2022-09-09T02:13:57;8.07;;;2.05;;
36445;SDS011;22472;50.848;-1.216;2022-09-09T02:16:30;6.93;;;1.83;;
36445;SDS011;22472;50.848;-1.216;2022-09-09T02:19:02;4.57;;;1.58;;
36445;SDS011;22472;50.848;-1.216;2022-09-09T02:21:38;6.10;;;1.80;;
36445;SDS011;22472;50.848;-1.216;2022-09-09T02:24:08;7.57;;;1.75;;
36445;SDS011;22472;50.848;-1.216;2022-09-09T02:26:36;5.85;;;1.73;;
36445;SDS011;22472;50.848;-1.216;2022-09-09T02:29:08;4.95;;;1.35;;
36445;SDS011;22472;50.848;-1.216;2022-09-09T02:31:41;7.18;;;1.90;;
36445;SDS011;22472;50.848;-1.216;2022-09-09T02:34:10;8.20;;;2.20;;
36445;SDS011;22472;50.848;-1.216;2022-09-09T02:36:40;5.93;;;1.85;;
36445;SDS011;22472;50.848;-1.216;2022-09-09T02:39:09;4.97;;;1.77;;
36445;SDS011;22472;50.848;-1.216;2022-09-09T02:41:38;7.43;;;2.20;;
36445;SDS011;22472;50.848;-1.216;2022-09-09T02:44:09;4.70;;;1.87;;
36445;SDS011;22472;50.848;-1.216;2022-09-09T02:46:43;4.18;;;1.85;;
36445;SDS011;22472;50.848;-1.216;2022-09-09T02:49:26;6.57;;;2.17;;
36445;SDS011;22472;50.848;-1.216;2022-09-09T02:58:59;4.95;;;2.20;;
36445;SDS011;22472;50.848;-1.216;2022-09-09T03:01:29;6.70;;;2.70;;
36445;SDS011;22472;50.848;-1.216;2022-09-09T03:03:58;7.93;;;2.72;;
36445;SDS011;22472;50.848;-1.216;2022-09-09T03:06:25;8.77;;;3.20;;
36445;SDS011;22472;50.848;-1.216;2022-09-09T03:08:52;6.13;;;3.45;;
36445;SDS011;22472;50.848;-1.216;2022-09-09T03:11:19;8.07;;;3.20;;
36445;SDS011;22472;50.848;-1.216;2022-09-09T03:13:46;8.25;;;3.80;;
36445;SDS011;22472;50.848;-1.216;2022-09-09T03:16:14;5.13;;;3.42;;
36445;SDS011;22472;50.848;-1.216;2022-09-09T03:18:41;6.03;;;3.60;;
36445;SDS011;22472;50.848;-1.216;2022-09-09T03:21:12;7.17;;;3.93;;
36445;SDS011;22472;50.848;-1.216;2022-09-09T03:23:39;7.75;;;3.75;;
36445;SDS011;22472;50.848;-1.216;2022-09-09T03:26:06;7.38;;;3.60;;
36445;SDS011;22472;50.848;-1.216;2022-09-09T03:28:33;5.22;;;3.92;;
36445;SDS011;22472;50.848;-1.216;2022-09-09T03:31:00;8.65;;;4.20;;
36445;SDS011;22472;50.848;-1.216;2022-09-09T03:33:29;8.00;;;4.03;;
36445;SDS011;22472;50.848;-1.216;2022-09-09T03:35:56;7.93;;;4.68;;
36445;SDS011;22472;50.848;-1.216;2022-09-09T03:38:25;7.50;;;3.67;;
36445;SDS011;22472;50.848;-1.216;2022-09-09T03:40:54;6.95;;;3.58;;
36445;SDS011;22472;50.848;-1.216;2022-09-09T03:43:22;6.85;;;4.03;;
36445;SDS011;22472;50.848;-1.216;2022-09-09T03:45:50;7.97;;;3.70;;
36445;SDS011;22472;50.848;-1.216;2022-09-09T03:48:17;9.32;;;3.65;;
36445;SDS011;22472;50.848;-1.216;2022-09-09T03:50:45;8.07;;;3.50;;
36445;SDS011;22472;50.848;-1.216;2022-09-09T03:53:13;8.07;;;2.90;;
36445;SDS011;22472;50.848;-1.216;2022-09-09T03:55:44;7.60;;;2.42;;
36445;SDS011;22472;50.848;-1.216;2022-09-09T04:00:40;6.10;;;2.33;;
36445;SDS011;22472;50.848;-1.216;2022-09-09T04:03:07;7.70;;;2.15;;
36445;SDS011;22472;50.848;-1.216;2022-09-09T04:05:34;5.55;;;2.10;;
36445;SDS011;22472;50.848;-1.216;2022-09-09T04:08:04;5.43;;;2.05;;
36445;SDS011;22472;50.848;-1.216;2022-09-09T04:10:32;5.78;;;1.83;;
36445;SDS011;22472;50.848;-1.216;2022-09-09T04:13:02;7.05;;;1.90;;
36445;SDS011;22472;50.848;-1.216;2022-09-09T04:15:30;6.78;;;2.00;;
36445;SDS011;22472;50.848;-1.216;2022-09-09T04:17:57;6.40;;;1.73;;
36445;SDS011;22472;50.848;-1.216;2022-09-09T04:20:24;4.72;;;1.40;;
36445;SDS011;22472;50.848;-1.216;2022-09-09T04:22:51;7.75;;;1.65;;
36445;SDS011;22472;50.848;-1.216;2022-09-09T04:25:18;5.38;;;1.50;;
36445;SDS011;22472;50.848;-1.216;2022-09-09T04:27:45;4.80;;;1.10;;
36445;SDS011;22472;50.848;-1.216;2022-09-09T04:30:14;4.65;;;1.27;;
36445;SDS011;22472;50.848;-1.216;2022-09-09T04:32:41;4.72;;;1.10;;
36445;SDS011;22472;50.848;-1.216;2022-09-09T04:35:08;4.40;;;1.10;;
36445;SDS011;22472;50.848;-1.216;2022-09-09T04:37:35;5.10;;;1.50;;
36445;SDS011;22472;50.848;-1.216;2022-09-09T04:40:02;4.10;;;1.23;;
36445;SDS011;22472;50.848;-1.216;2022-09-09T04:42:29;5.65;;;1.30;;
36445;SDS011;22472;50.848;-1.216;2022-09-09T04:45:00;4.85;;;1.17;;
36445;SDS011;22472;50.848;-1.216;2022-09-09T04:47:29;5.20;;;1.40;;
36445;SDS011;22472;50.848;-1.216;2022-09-09T04:49:56;6.22;;;1.25;;
36445;SDS011;22472;50.848;-1.216;2022-09-09T04:52:23;5.40;;;1.23;;
36445;SDS011;22472;50.848;-1.216;2022-09-09T04:54:50;7.28;;;1.50;;
36445;SDS011;22472;50.848;-1.216;2022-09-09T04:57:19;4.28;;;1.25;;
36445;SDS011;22472;50.848;-1.216;2022-09-09T04:59:46;8.52;;;1.40;;
36445;SDS011;22472;50.848;-1.216;2022-09-09T06:20:06;7.22;;;3.38;;
36445;SDS011;22472;50.848;-1.216;2022-09-09T06:22:34;8.18;;;3.65;;
36445;SDS011;22472;50.848;-1.216;2022-09-09T06:25:01;9.93;;;4.18;;
36445;SDS011;22472;50.848;-1.216;2022-09-09T06:27:28;6.30;;;4.22;;
36445;SDS011;22472;50.848;-1.216;2022-09-09T06:29:55;8.65;;;4.40;;
36445;SDS011;22472;50.848;-1.216;2022-09-09T06:32:22;10.05;;;4.38;;
36445;SDS011;22472;50.848;-1.216;2022-09-09T06:34:49;8.68;;;4.03;;
36445;SDS011;22472;50.848;-1.216;2022-09-09T06:37:17;6.90;;;4.22;;
36445;SDS011;22472;50.848;-1.216;2022-09-09T06:39:45;7.43;;;4.38;;
36445;SDS011;22472;50.848;-1.216;2022-09-09T06:42:13;8.50;;;4.88;;
36445;SDS011;22472;50.848;-1.216;2022-09-09T06:44:40;9.32;;;5.05;;
36445;SDS011;22472;50.848;-1.216;2022-09-09T06:47:07;8.48;;;4.45;;
36445;SDS011;22472;50.848;-1.216;2022-09-09T06:49:34;6.28;;;4.40;;
36445;SDS011;22472;50.848;-1.216;2022-09-09T06:52:01;9.20;;;5.60;;
36445;SDS011;22472;50.848;-1.216;2022-09-09T06:54:30;12.60;;;5.43;;
36445;SDS011;22472;50.848;-1.216;2022-09-09T06:56:57;10.00;;;5.90;;
36445;SDS011;22472;50.848;-1.216;2022-09-09T06:59:25;12.13;;;5.70;;
36445;SDS011;22472;50.848;-1.216;2022-09-09T07:01:53;11.77;;;5.05;;
36445;SDS011;22472;50.848;-1.216;2022-09-09T07:04:20;7.97;;;4.18;;
36445;SDS011;22472;50.848;-1.216;2022-09-09T07:06:47;7.63;;;4.10;;
36445;SDS011;22472;50.848;-1.216;2022-09-09T07:09:14;10.05;;;4.07;;
36445;SDS011;22472;50.848;-1.216;2022-09-09T07:11:44;8.30;;;3.33;;
36445;SDS011;22472;50.848;-1.216;2022-09-09T07:14:13;6.47;;;3.20;;
36445;SDS011;22472;50.848;-1.216;2022-09-09T07:16:41;5.90;;;2.90;;
36445;SDS011;22472;50.848;-1.216;2022-09-09T07:19:08;6.30;;;2.60;;
36445;SDS011;22472;50.848;-1.216;2022-09-09T07:21:36;5.60;;;2.38;;
36445;SDS011;22472;50.848;-1.216;2022-09-09T07:24:03;4.53;;;1.95;;
36445;SDS011;22472;50.848;-1.216;2022-09-09T07:26:32;7.32;;;1.77;;
36445;SDS011;22472;50.848;-1.216;2022-09-09T07:29:01;6.25;;;1.90;;
36445;SDS011;22472;50.848;-1.216;2022-09-09T07:31:29;5.28;;;1.33;;
36445;SDS011;22472;50.848;-1.216;2022-09-09T07:33:58;4.88;;;1.30;;
36445;SDS011;22472;50.848;-1.216;2022-09-09T07:36:26;7.38;;;1.38;;
36445;SDS011;22472;50.848;-1.216;2022-09-09T07:38:55;5.55;;;1.30;;
36445;SDS011;22472;50.848;-1.216;2022-09-09T07:41:24;4.80;;;1.00;;
36445;SDS011;22472;50.848;-1.216;2022-09-09T07:43:53;7.60;;;1.15;;
36445;SDS011;22472;50.848;-1.216;2022-09-09T07:46:23;5.68;;;0.90;;
36445;SDS011;22472;50.848;-1.216;2022-09-09T07:48:52;4.10;;;1.10;;
36445;SDS011;22472;50.848;-1.216;2022-09-09T07:51:21;6.28;;;1.00;;
36445;SDS011;22472;50.848;-1.216;2022-09-09T08:34:32;3.03;;;0.57;;
36445;SDS011;22472;50.848;-1.216;2022-09-09T08:50:29;4.72;;;0.50;;
36445;SDS011;22472;50.848;-1.216;2022-09-09T08:53:02;3.72;;;0.38;;
36445;SDS011;22472;50.848;-1.216;2022-09-09T08:55:37;1.85;;;0.47;;
36445;SDS011;22472;50.848;-1.216;2022-09-09T08:58:12;2.55;;;0.40;;
36445;SDS011;22472;50.848;-1.216;2022-09-09T09:17:16;3.75;;;0.40;;
36445;SDS011;22472;50.848;-1.216;2022-09-09T09:31:57;3.33;;;0.40;;
36445;SDS011;22472;50.848;-1.216;2022-09-09T09:57:24;3.33;;;0.50;;
36445;SDS011;22472;50.848;-1.216;2022-09-09T10:00:00;2.88;;;0.30;;
36445;SDS011;22472;50.848;-1.216;2022-09-09T10:25:27;2.47;;;0.40;;
36445;SDS011;22472;50.848;-1.216;2022-09-09T11:02:11;4.47;;;0.40;;
36445;SDS011;22472;50.848;-1.216;2022-09-09T11:14:50;2.72;;;0.35;;
36445;SDS011;22472;50.848;-1.216;2022-09-09T11:18:01;1.65;;;0.20;;
36445;SDS011;22472;50.848;-1.216;2022-09-09T11:20:31;1.23;;;0.30;;
36445;SDS011;22472;50.848;-1.216;2022-09-09T11:22:59;1.98;;;0.40;;
36445;SDS011;22472;50.848;-1.216;2022-09-09T11:25:31;2.63;;;0.30;;
36445;SDS011;22472;50.848;-1.216;2022-09-09T12:01:53;3.88;;;0.30;;
36445;SDS011;22472;50.848;-1.216;2022-09-09T12:18:14;1.65;;;0.30;;
36445;SDS011;22472;50.848;-1.216;2022-09-09T12:27:33;2.15;;;0.20;;
36445;SDS011;22472;50.848;-1.216;2022-09-09T12:30:12;1.40;;;0.40;;
36445;SDS011;22472;50.848;-1.216;2022-09-09T12:35:11;1.92;;;0.30;;
36445;SDS011;22472;50.848;-1.216;2022-09-09T17:58:18;2.55;;;0.40;;
36445;SDS011;22472;50.848;-1.216;2022-09-09T18:07:30;3.50;;;0.80;;
36445;SDS011;22472;50.848;-1.216;2022-09-09T18:26:23;3.53;;;0.80;;
36445;SDS011;22472;50.848;-1.216;2022-09-09T19:22:54;3.38;;;0.55;;
36445;SDS011;22472;50.848;-1.216;2022-09-09T19:25:22;3.38;;;0.50;;
36445;SDS011;22472;50.848;-1.216;2022-09-09T19:27:49;3.53;;;0.55;;
36445;SDS011;22472;50.848;-1.216;2022-09-09T19:30:16;3.40;;;0.68;;
36445;SDS011;22472;50.848;-1.216;2022-09-09T19:32:43;2.28;;;0.63;;
36445;SDS011;22472;50.848;-1.216;2022-09-09T19:35:10;2.75;;;0.73;;
36445;SDS011;22472;50.848;-1.216;2022-09-09T21:04:43;2.45;;;0.75;;
36445;SDS011;22472;50.848;-1.216;2022-09-09T21:07:12;4.03;;;0.77;;
36445;SDS011;22472;50.848;-1.216;2022-09-09T21:09:39;3.58;;;1.05;;
36445;SDS011;22472;50.848;-1.216;2022-09-09T21:12:06;3.40;;;0.98;;
36445;SDS011;22472;50.848;-1.216;2022-09-09T22:37:39;6.47;;;1.25;;
36445;SDS011;22472;50.848;-1.216;2022-09-09T22:40:07;5.43;;;1.60;;
36445;SDS011;22472;50.848;-1.216;2022-09-09T22:42:34;5.70;;;1.27;;
36445;SDS011;22472;50.848;-1.216;2022-09-09T22:45:01;5.18;;;1.42;;
36445;SDS011;22472;50.848;-1.216;2022-09-09T22:47:29;5.30;;;1.33;;
36445;SDS011;22472;50.848;-1.216;2022-09-09T22:49:56;5.43;;;1.33;;
36445;SDS011;22472;50.848;-1.216;2022-09-09T22:52:23;4.70;;;1.40;;
36445;SDS011;22472;50.848;-1.216;2022-09-09T22:54:51;3.92;;;1.15;;
36445;SDS011;22472;50.848;-1.216;2022-09-09T22:57:18;4.60;;;1.20;;
36445;SDS011;22472;50.848;-1.216;2022-09-09T23:05:51;7.32;;;1.40;;
36445;SDS011;22472;50.848;-1.216;2022-09-09T23:48:46;7.40;;;2.75;;
